Flight Track Log - Related Links

Times and Time Zones

All times are in EDT time to prevent confusion due to time zone crossing. See the FLG4211 flight status page for this flight to view local times or setup timezone preferences in your user account.

Time Position Orientation Groundspeed Altitude Reporting Facility
EDT Latitude Longitude Course Direction KTS MPH feet Rate Location/Type
Tue 12:21:08 PM 42.2036 -83.3556 275° West 148 170 1,300  Level Cleveland Center
Tue 12:21:40 PM 42.1897 -83.3681 214° Southwest 169 194 2,400 2,151 Climbing FAA TRACON SMA TRACON (SMA)
Tue 12:22:01 PM 42.1747 -83.3814 213° Southwest 175 201 3,200 2,300 Climbing FAA TRACON SMA TRACON (SMA)
Tue 12:22:40 PM 42.1442 -83.4075 212° Southwest 219 252 4,700 2,339 Climbing FAA TRACON SMA TRACON (SMA)
Tue 12:23:00 PM 42.1250 -83.4239 212° Southwest 243 280 5,500 2,757 Climbing FAA TRACON SMA TRACON (SMA)
Tue 12:23:17 PM 42.1078 -83.4408 216° Southwest 251 289 6,400 3,231 Climbing Cleveland Center
Tue 12:24:00 PM 42.2291 -83.8105 276° West  Level FlightAware Approximate
Tue 12:24:18 PM 42.0992 -83.5328 263° West 268 308 9,700  Level Cleveland Center
Tue 12:24:50 PM 42.1164 -83.5953 290° West 301 346 10,000 290 Climbing Cleveland Center
Tue 12:25:00 PM 42.2369 -83.9262 275° West  Level FlightAware Approximate
Tue 12:25:20 PM 42.1275 -83.6461 286° West 321 369 10,000  Level Cleveland Center
Tue 12:25:50 PM 42.1425 -83.7114 287° West 331 381 10,200 1,667 Climbing Cleveland Center
Tue 12:26:00 PM 42.2437 -84.0420 275° West  Level FlightAware Approximate
Tue 12:26:50 PM 42.1686 -83.8219 288° West 357 411 12,500  Level Cleveland Center
Tue 12:27:50 PM 42.1983 -83.9439 288° West 357 411 13,900 700 Climbing Cleveland Center
Tue 12:28:50 PM 42.2303 -84.0633 290° West 357 411 13,900  Level Cleveland Center
Tue 12:29:50 PM 42.2561 -84.1744 287° West 336 387 13,900 -50 Level Cleveland Center
Tue 12:30:50 PM 42.2672 -84.2872 278° West 316 364 13,800 -600 Descending Cleveland Center
Tue 12:31:50 PM 42.2650 -84.4106 269° West 316 364 12,700 -1,150 Descending Cleveland Center
Tue 12:32:50 PM 42.2636 -84.5200 269° West 316 364 11,500 -1,300 Descending Cleveland Center
Tue 12:33:50 PM 42.2600 -84.6208 267° West 295 339 10,100 -750 Descending Cleveland Center
Tue 12:34:50 PM 42.2631 -84.7136 273° West 283 326 10,000 -50 Descending Cleveland Center
Tue 12:35:50 PM 42.2611 -84.8200 269° West 283 326 10,000 -450 Level Cleveland Center
Tue 12:36:50 PM 42.2681 -84.9189 275° West 278 320 9,100 -1,350 Descending Cleveland Center
Tue 12:37:50 PM 42.2831 -85.0153 282° West 272 313 7,300 -1,800 Descending Cleveland Center
Tue 12:38:50 PM 42.2983 -85.1033 283° West 256 295 5,500 -1,600 Descending Cleveland Center
Tue 12:39:50 PM 42.3136 -85.1917 283° West 250 288 4,100 -750 Descending Cleveland Center
Tue 12:40:50 PM 42.3289 -85.2800 283° West 245 282 4,000 -590 Descending Cleveland Center
Tue 12:42:43 PM 42.3389 -85.4436 275° West 241 277 2,400 -850 Descending Chicago Center

Login

Don't have an account? Register now (free) for customized features, flight alerts, and more!